createdAt,value
2024-05-09T00:01:50.386Z,6.66
2024-05-09T00:06:53.102Z,6.58
2024-05-09T00:11:55.979Z,6.53
2024-05-09T00:16:58.699Z,6.44
2024-05-09T00:22:01.365Z,6.38
2024-05-09T00:27:04.600Z,6.27
2024-05-09T00:32:08.432Z,6.22
2024-05-09T00:37:11.142Z,6.09
2024-05-09T00:42:14.178Z,6.09
2024-05-09T00:47:54.795Z,6.06
2024-05-09T00:52:57.813Z,5.85
2024-05-09T00:58:02.471Z,5.74
2024-05-09T01:03:05.573Z,5.66
2024-05-09T01:08:09.656Z,5.62
2024-05-09T01:13:12.904Z,5.58
2024-05-09T01:18:16.182Z,5.62
2024-05-09T01:23:18.991Z,5.62
2024-05-09T01:28:21.751Z,5.42
2024-05-09T01:33:24.663Z,5.37
2024-05-09T01:38:27.522Z,5.24
2024-05-09T01:43:30.512Z,5.21
2024-05-09T01:48:33.285Z,5.16
2024-05-09T01:53:36.485Z,5.11
2024-05-09T01:58:39.444Z,5.16
2024-05-09T02:03:46.570Z,5.01
2024-05-09T02:08:49.541Z,4.79
2024-05-09T02:13:52.493Z,4.68
2024-05-09T02:18:55.231Z,4.83
2024-05-09T02:23:57.947Z,4.89
2024-05-09T02:29:00.964Z,4.88
2024-05-09T02:34:04.009Z,4.79
2024-05-09T02:39:06.877Z,4.61
2024-05-09T02:44:09.871Z,4.31
2024-05-09T02:49:12.734Z,4.19
2024-05-09T02:54:15.800Z,4.43
2024-05-09T02:59:18.731Z,4.29
2024-05-09T03:04:21.596Z,4.11
2024-05-09T03:09:24.339Z,4.09
2024-05-09T03:14:27.204Z,4.22
2024-05-09T03:19:30.027Z,4.33
2024-05-09T03:24:32.821Z,4.22
2024-05-09T03:29:36.736Z,4.33
2024-05-09T03:34:39.512Z,4.49
2024-05-09T03:39:42.213Z,4.67
2024-05-09T03:44:46.163Z,4.71
2024-05-09T03:49:48.957Z,4.94
2024-05-09T03:54:51.993Z,5.02
2024-05-09T03:59:54.670Z,5.29
2024-05-09T04:04:57.432Z,5.72
2024-05-09T04:10:00.234Z,6.00
2024-05-09T04:15:03.557Z,6.13
2024-05-09T04:20:08.546Z,6.36
2024-05-09T04:25:13.319Z,6.60
2024-05-09T04:30:25.412Z,6.76
2024-05-09T04:35:33.894Z,6.93
2024-05-09T04:40:38.337Z,6.87
2024-05-09T04:45:41.690Z,7.08
2024-05-09T04:50:44.481Z,7.36
2024-05-09T04:55:47.377Z,7.65
2024-05-09T05:00:50.205Z,7.87
2024-05-09T05:05:53.091Z,8.08
2024-05-09T05:10:56.295Z,8.33
2024-05-09T05:15:59.231Z,8.55
2024-05-09T05:21:02.008Z,8.73
2024-05-09T05:26:05.117Z,8.84
2024-05-09T05:31:07.871Z,9.07
2024-05-09T05:36:13.454Z,8.98
2024-05-09T05:41:16.273Z,9.19
2024-05-09T05:46:20.148Z,9.24
2024-05-09T05:51:22.905Z,9.39
2024-05-09T05:56:26.425Z,9.55
2024-05-09T06:01:30.367Z,9.66
2024-05-09T06:06:33.113Z,9.94
2024-05-09T06:11:36.072Z,10.12
2024-05-09T06:16:39.875Z,10.31
2024-05-09T06:21:42.617Z,10.31
2024-05-09T06:26:46.327Z,10.45
2024-05-09T06:31:49.501Z,10.67
2024-05-09T06:36:52.231Z,10.48
2024-05-09T06:41:54.889Z,10.87
2024-05-09T06:46:59.691Z,10.88
2024-05-09T06:52:03.692Z,11.06
2024-05-09T06:57:06.527Z,10.91
2024-05-09T07:02:09.471Z,10.84
2024-05-09T07:07:12.253Z,10.82
2024-05-09T07:12:15.364Z,11.22
2024-05-09T07:17:18.252Z,11.22
2024-05-09T07:22:20.966Z,11.21
2024-05-09T07:27:27.649Z,11.50
2024-05-09T07:32:30.558Z,11.87
2024-05-09T07:37:33.368Z,12.25
2024-05-09T07:42:36.159Z,12.30
2024-05-09T07:49:11.908Z,12.59
2024-05-09T07:53:36.113Z,12.79
2024-05-09T07:58:27.490Z,13.05
2024-05-09T08:03:31.441Z,12.93
2024-05-09T08:08:34.445Z,13.56
2024-05-09T08:13:38.391Z,13.67
2024-05-09T08:18:41.390Z,13.89
2024-05-09T08:23:44.201Z,14.09
2024-05-09T08:28:46.960Z,13.72
2024-05-09T08:33:52.804Z,13.99
2024-05-09T08:38:56.799Z,13.96
2024-05-09T08:43:59.827Z,13.88
2024-05-09T08:49:03.425Z,14.46
2024-05-09T08:54:06.239Z,13.94
2024-05-09T08:59:13.346Z,13.88
2024-05-09T09:04:17.675Z,13.83
2024-05-09T09:09:21.507Z,13.85
2024-05-09T09:14:24.260Z,13.67
2024-05-09T09:19:28.153Z,14.07
2024-05-09T09:24:31.025Z,14.19
2024-05-09T09:29:34.204Z,14.73
2024-05-09T09:34:37.115Z,14.47
2024-05-09T09:39:41.916Z,14.74
2024-05-09T09:44:57.667Z,14.76
2024-05-09T09:50:11.824Z,14.95
2024-05-09T09:55:17.828Z,15.11
2024-05-09T10:00:27.212Z,15.79
2024-05-09T10:05:35.598Z,16.41
2024-05-09T10:10:38.907Z,16.93
2024-05-09T10:15:53.773Z,16.83
2024-05-09T10:20:59.244Z,16.43
2024-05-09T10:26:04.624Z,16.27
2024-05-09T10:31:08.612Z,16.57
2024-05-09T10:36:21.770Z,16.56
2024-05-09T10:41:24.646Z,17.24
2024-05-09T10:46:27.468Z,17.00
2024-05-09T10:51:30.604Z,16.92
2024-05-09T10:56:33.381Z,17.44
2024-05-09T11:01:36.402Z,17.39
2024-05-09T11:06:39.770Z,16.33
2024-05-09T11:11:42.710Z,17.58
2024-05-09T11:16:47.140Z,18.38
2024-05-09T11:21:52.670Z,18.20
2024-05-09T11:27:01.539Z,17.81
2024-05-09T11:32:08.398Z,17.86
2024-05-09T11:37:13.809Z,18.22
2024-05-09T11:42:17.373Z,17.82
2024-05-09T11:47:21.434Z,17.41
2024-05-09T11:52:24.254Z,17.20
2024-05-09T11:57:29.364Z,17.31
2024-05-09T12:02:32.184Z,17.37
2024-05-09T12:07:34.968Z,17.30
2024-05-09T12:12:37.734Z,17.69
2024-05-09T12:17:40.695Z,17.83
2024-05-09T12:22:43.454Z,17.82
2024-05-09T12:27:46.297Z,18.11
2024-05-09T12:32:49.470Z,17.83
2024-05-09T12:37:53.424Z,17.98
2024-05-09T12:42:56.325Z,18.36
2024-05-09T12:47:59.602Z,18.64
2024-05-09T12:53:40.286Z,18.95
2024-05-09T12:58:43.085Z,19.26
2024-05-09T13:03:45.995Z,18.98
2024-05-09T13:08:48.983Z,18.74
2024-05-09T13:13:51.686Z,18.42
2024-05-09T13:19:13.195Z,18.60
2024-05-09T13:24:15.956Z,18.20
2024-05-09T13:29:19.023Z,18.42
2024-05-09T13:34:21.802Z,18.49
2024-05-09T13:39:24.521Z,18.25
2024-05-09T13:44:27.225Z,18.09
2024-05-09T13:49:30.204Z,18.33
2024-05-09T13:54:33.030Z,18.24
2024-05-09T13:59:36.845Z,17.91
2024-05-09T14:04:39.710Z,18.32
2024-05-09T14:09:42.773Z,18.85
2024-05-09T14:14:45.671Z,19.14
2024-05-09T14:19:48.405Z,17.98
2024-05-09T14:24:51.158Z,17.87
2024-05-09T14:29:54.098Z,17.82
2024-05-09T14:34:56.927Z,18.66
2024-05-09T14:39:59.863Z,18.59
2024-05-09T14:45:03.056Z,18.29
2024-05-09T14:50:07.073Z,18.40
2024-05-09T14:55:12.448Z,18.92
2024-05-09T15:00:24.687Z,17.94
2024-05-09T15:05:31.410Z,17.81
2024-05-09T15:10:36.414Z,18.33
2024-05-09T15:15:40.205Z,18.85
2024-05-09T15:20:46.141Z,18.88
2024-05-09T15:25:49.294Z,17.86
2024-05-09T15:30:52.019Z,17.74
2024-05-09T15:35:54.769Z,18.08
2024-05-09T15:40:57.590Z,18.41
2024-05-09T15:46:01.587Z,18.30
2024-05-09T15:51:04.515Z,18.11
2024-05-09T15:56:09.998Z,18.41
2024-05-09T16:01:14.774Z,18.50
2024-05-09T16:06:17.855Z,18.45
2024-05-09T16:11:21.626Z,18.29
2024-05-09T16:16:24.567Z,18.20
2024-05-09T16:21:27.342Z,18.83
2024-05-09T16:26:30.103Z,18.99
2024-05-09T16:31:32.785Z,18.79
2024-05-09T16:36:35.667Z,19.14
2024-05-09T16:41:38.452Z,18.33
2024-05-09T16:46:41.256Z,18.61
2024-05-09T16:51:43.966Z,19.48
2024-05-09T16:56:46.791Z,19.72
2024-05-09T17:01:50.509Z,19.96
2024-05-09T17:06:54.254Z,20.33
2024-05-09T17:11:57.960Z,20.26
2024-05-09T17:17:00.870Z,19.93
2024-05-09T17:22:04.020Z,19.47
2024-05-09T17:27:07.742Z,19.18
2024-05-09T17:32:10.563Z,18.46
2024-05-09T17:37:13.480Z,17.96
2024-05-09T17:42:16.282Z,17.34
2024-05-09T17:47:19.409Z,16.82
2024-05-09T17:52:22.325Z,16.33
2024-05-09T17:57:26.076Z,15.92
2024-05-09T18:02:28.917Z,15.48
2024-05-09T18:07:32.223Z,14.99
2024-05-09T18:12:35.995Z,14.46
2024-05-09T18:17:39.354Z,14.04
2024-05-09T18:22:43.236Z,13.71
2024-05-09T18:27:47.844Z,13.27
2024-05-09T18:32:50.725Z,12.88
2024-05-09T18:37:54.836Z,12.62
2024-05-09T18:42:57.791Z,12.45
2024-05-09T18:48:01.731Z,12.19
2024-05-09T18:53:08.721Z,11.97
2024-05-09T18:58:12.840Z,11.70
2024-05-09T19:03:16.007Z,11.47
2024-05-09T19:08:19.273Z,11.30
2024-05-09T19:13:22.192Z,11.10
2024-05-09T19:18:25.184Z,10.91
2024-05-09T19:23:28.981Z,10.69
2024-05-09T19:28:31.959Z,10.73
2024-05-09T19:33:36.802Z,10.64
2024-05-09T19:38:39.598Z,10.49
2024-05-09T19:43:42.392Z,10.32
2024-05-09T19:48:45.299Z,10.17
2024-05-09T19:53:50.378Z,9.97
2024-05-09T19:58:53.148Z,9.68
2024-05-09T20:03:58.953Z,9.58
2024-05-09T20:09:01.792Z,9.47
2024-05-09T20:14:04.584Z,9.36
2024-05-09T20:19:07.502Z,9.25
2024-05-09T20:24:10.475Z,9.16
2024-05-09T20:29:13.292Z,9.10
2024-05-09T20:34:17.079Z,9.05
2024-05-09T20:39:25.155Z,9.00
2024-05-09T20:44:27.818Z,8.99
2024-05-09T20:49:30.577Z,8.85
2024-05-09T20:54:33.515Z,8.70
2024-05-09T20:59:37.631Z,8.76
2024-05-09T21:04:40.649Z,9.25
2024-05-09T21:09:43.801Z,8.66
2024-05-09T21:14:46.502Z,8.40
2024-05-09T21:19:50.289Z,8.29
2024-05-09T21:24:53.161Z,8.15
2024-05-09T21:29:55.898Z,8.37
2024-05-09T21:34:58.730Z,8.70
2024-05-09T21:40:09.170Z,8.31
2024-05-09T21:45:14.209Z,7.93
2024-05-09T21:50:22.792Z,7.80
2024-05-09T21:55:31.051Z,7.80
2024-05-09T22:00:38.017Z,7.77
2024-05-09T22:05:43.961Z,7.74
2024-05-09T22:10:47.014Z,7.74
2024-05-09T22:15:49.879Z,7.71
2024-05-09T22:20:53.652Z,7.61
2024-05-09T22:25:56.512Z,7.52
2024-05-09T22:30:59.254Z,7.28
2024-05-09T22:36:03.266Z,7.13
2024-05-09T22:41:07.473Z,6.95
2024-05-09T22:46:10.267Z,6.69
2024-05-09T22:51:12.986Z,6.68
2024-05-09T22:56:26.640Z,6.53
2024-05-09T23:01:29.484Z,6.53
2024-05-09T23:06:32.318Z,6.48
2024-05-09T23:11:35.145Z,6.37
2024-05-09T23:16:37.928Z,6.28
2024-05-09T23:21:41.274Z,6.11
2024-05-09T23:26:44.440Z,6.06
2024-05-09T23:31:47.129Z,5.98
2024-05-09T23:36:49.840Z,5.95
2024-05-09T23:41:52.591Z,5.89
2024-05-09T23:46:55.612Z,5.90
2024-05-09T23:51:58.634Z,5.86
2024-05-09T23:57:01.475Z,5.87
